createdAt,value
2023-04-18T04:02:45.740Z,2.35
2023-04-18T04:06:55.108Z,2.72
2023-04-18T04:10:57.910Z,2.40
2023-04-18T04:15:00.844Z,2.60
2023-04-18T04:19:05.561Z,3.00
2023-04-18T04:23:14.602Z,2.63
2023-04-18T04:27:20.450Z,2.90
2023-04-18T04:31:23.573Z,2.42
2023-04-18T04:35:28.341Z,2.67
2023-04-18T04:39:31.171Z,2.90
2023-04-18T04:43:49.793Z,3.05
2023-04-18T04:47:55.395Z,3.00
2023-04-18T04:52:01.440Z,2.83
2023-04-18T04:56:06.032Z,3.05
2023-04-18T05:00:11.101Z,3.15
2023-04-18T05:04:14.036Z,3.53
2023-04-18T05:08:18.379Z,3.60
2023-04-18T05:12:20.920Z,3.60
2023-04-18T05:16:23.506Z,2.90
2023-04-18T05:20:26.173Z,4.13
2023-04-18T05:24:31.732Z,3.30
2023-04-18T05:28:34.280Z,3.60
2023-04-18T05:32:38.953Z,3.88
2023-04-18T05:36:42.574Z,3.55
2023-04-18T05:40:46.489Z,4.10
2023-04-18T05:44:48.984Z,4.90
2023-04-18T05:48:51.516Z,4.82
2023-04-18T05:52:54.045Z,5.90
2023-04-18T05:56:58.411Z,5.87
2023-04-18T06:01:01.652Z,5.68
2023-04-18T06:05:04.474Z,6.20
2023-04-18T06:09:07.361Z,5.68
2023-04-18T06:13:11.228Z,6.22
2023-04-18T06:17:13.956Z,6.30
2023-04-18T06:21:16.525Z,6.10
2023-04-18T06:25:19.100Z,6.13
2023-04-18T06:29:23.207Z,6.20
2023-04-18T06:33:26.014Z,6.35
2023-04-18T06:37:28.650Z,6.68
2023-04-18T06:41:32.109Z,7.03
2023-04-18T06:49:38.452Z,5.45
2023-04-18T06:53:41.044Z,7.40
2023-04-18T06:57:44.120Z,6.40
2023-04-18T07:01:48.953Z,5.82
2023-04-18T07:05:51.510Z,7.40
2023-04-18T07:09:54.135Z,6.97
2023-04-18T07:13:57.103Z,7.13
2023-04-18T07:18:01.077Z,6.82
2023-04-18T07:22:03.717Z,7.47
2023-04-18T07:26:06.459Z,8.00
2023-04-18T07:30:10.000Z,6.60
2023-04-18T07:34:15.256Z,6.85
2023-04-18T07:38:18.104Z,6.28
2023-04-18T07:42:20.780Z,6.50
2023-04-18T07:46:23.374Z,8.63
2023-04-18T07:50:27.358Z,6.77
2023-04-18T07:54:30.005Z,6.25
2023-04-18T07:58:32.540Z,6.43
2023-04-18T08:02:35.280Z,6.57
2023-04-18T08:06:39.419Z,7.13
2023-04-18T08:10:41.946Z,6.55
2023-04-18T08:14:44.513Z,6.27
2023-04-18T08:18:47.055Z,5.83
2023-04-18T08:26:59.905Z,6.40
2023-04-18T08:31:02.679Z,6.70
2023-04-18T08:35:05.677Z,7.05
2023-04-18T08:39:10.184Z,6.35
2023-04-18T08:43:14.187Z,5.60
2023-04-18T08:47:16.917Z,6.75
2023-04-18T08:51:19.542Z,6.83
2023-04-18T08:55:23.537Z,7.60
2023-04-18T08:59:26.395Z,6.93
2023-04-18T09:03:39.478Z,7.18
2023-04-18T09:07:42.956Z,7.13
2023-04-18T09:19:57.800Z,6.70
2023-04-18T09:24:20.629Z,7.00
2023-04-18T09:28:26.870Z,7.43
2023-04-18T09:32:30.694Z,6.70
2023-04-18T09:36:35.251Z,7.13
2023-04-18T09:40:37.789Z,6.55
2023-04-18T09:44:59.569Z,6.30
2023-04-18T09:49:02.774Z,5.90
2023-04-18T09:53:06.169Z,6.50
2023-04-18T10:01:14.021Z,5.28
2023-04-18T10:05:20.760Z,7.03
2023-04-18T10:09:24.449Z,5.68
2023-04-18T10:13:27.508Z,6.18
2023-04-18T10:17:52.540Z,6.40
2023-04-18T10:22:03.212Z,5.70
2023-04-18T10:26:06.251Z,6.07
2023-04-18T10:30:09.813Z,6.47
2023-04-18T10:34:17.436Z,5.97
2023-04-18T10:38:23.860Z,6.32
2023-04-18T10:43:00.570Z,5.47
2023-04-18T10:47:23.952Z,4.90
2023-04-18T10:51:29.076Z,5.82
2023-04-18T10:55:32.138Z,5.80
2023-04-18T10:59:38.415Z,5.25
2023-04-18T11:03:41.272Z,5.30
2023-04-18T11:07:48.371Z,5.43
2023-04-18T11:12:04.117Z,5.28
2023-04-18T11:16:07.306Z,4.97
2023-04-18T11:20:12.740Z,6.05
2023-04-18T11:24:24.075Z,5.47
2023-04-18T11:28:28.454Z,4.30
2023-04-18T11:32:31.125Z,5.70
2023-04-18T11:36:35.082Z,6.75
2023-04-18T11:40:39.020Z,5.35
2023-04-18T11:44:43.846Z,5.20
2023-04-18T11:48:47.666Z,5.43
2023-04-18T11:52:51.450Z,5.13
2023-04-18T11:56:55.362Z,5.45
2023-04-18T12:00:57.954Z,5.53
2023-04-18T12:05:01.591Z,5.73
2023-04-18T12:09:06.219Z,5.60
2023-04-18T12:13:10.061Z,6.30
2023-04-18T12:17:13.931Z,5.65
2023-04-18T12:21:16.936Z,5.93
2023-04-18T12:25:24.214Z,5.53
2023-04-18T12:29:30.404Z,5.55
2023-04-18T12:33:33.055Z,5.80
2023-04-18T12:37:35.580Z,5.00
2023-04-18T12:41:38.122Z,5.43
2023-04-18T12:45:42.271Z,5.53
2023-04-18T12:49:44.812Z,5.13
2023-04-18T12:53:47.458Z,5.20
2023-04-18T12:57:51.820Z,4.90
2023-04-18T13:01:55.748Z,5.30
2023-04-18T13:05:58.297Z,4.82
2023-04-18T13:10:00.850Z,5.00
2023-04-18T13:14:03.446Z,5.70
2023-04-18T13:18:07.788Z,6.40
2023-04-18T13:22:10.542Z,5.80
2023-04-18T13:26:13.101Z,5.50
2023-04-18T13:30:15.720Z,5.07
2023-04-18T13:34:19.618Z,5.53
2023-04-18T13:38:22.140Z,4.90
2023-04-18T13:42:24.679Z,4.40
2023-04-18T13:46:27.604Z,4.17
2023-04-18T13:50:31.480Z,4.47
2023-04-18T13:54:34.248Z,4.88
2023-04-18T13:58:36.808Z,4.97
2023-04-18T14:02:39.531Z,4.60
2023-04-18T14:06:43.521Z,4.57
2023-04-18T14:10:46.029Z,4.93
2023-04-18T14:14:48.612Z,4.87
2023-04-18T14:18:51.124Z,5.07
2023-04-18T14:22:55.114Z,5.10
2023-04-18T14:26:57.651Z,5.15
2023-04-18T14:31:02.035Z,4.73
2023-04-18T14:35:07.082Z,4.85
2023-04-18T14:39:11.434Z,4.88
2023-04-18T14:43:14.087Z,4.95
2023-04-18T14:47:16.837Z,5.20
2023-04-18T14:51:19.478Z,4.85
2023-04-18T14:55:23.611Z,5.00
2023-04-18T14:59:27.892Z,5.57
2023-04-18T15:03:30.543Z,5.80
2023-04-18T15:07:33.232Z,5.45
2023-04-18T15:11:37.149Z,5.70
2023-04-18T15:15:40.073Z,5.72
2023-04-18T15:19:42.652Z,5.57
2023-04-18T15:23:45.270Z,5.63
2023-04-18T15:27:49.170Z,5.80
2023-04-18T15:31:51.816Z,5.32
2023-04-18T15:35:56.094Z,5.47
2023-04-18T15:39:58.590Z,5.35
2023-04-18T15:44:02.739Z,5.63
2023-04-18T15:48:05.460Z,5.15
2023-04-18T15:52:08.392Z,5.70
2023-04-18T15:56:10.991Z,5.45
2023-04-18T16:00:16.520Z,5.33
2023-04-18T16:04:19.090Z,5.85
2023-04-18T16:08:21.783Z,5.87
2023-04-18T16:12:24.331Z,6.45
2023-04-18T16:16:28.920Z,5.43
2023-04-18T16:20:33.351Z,5.72
2023-04-18T16:24:35.904Z,5.75
2023-04-18T16:28:38.584Z,5.90
2023-04-18T16:32:42.494Z,6.20
2023-04-18T16:36:45.067Z,5.95
2023-04-18T16:40:47.598Z,6.33
2023-04-18T16:44:50.132Z,6.80
2023-04-18T16:48:54.025Z,6.60
2023-04-18T16:52:56.521Z,6.30
2023-04-18T16:56:59.062Z,5.80
2023-04-18T17:01:02.424Z,6.30
2023-04-18T17:09:09.213Z,6.30
2023-04-18T17:13:11.779Z,7.17
2023-04-18T17:17:14.293Z,8.07
2023-04-18T17:21:18.126Z,7.30
2023-04-18T17:25:21.499Z,6.97
2023-04-18T17:33:27.869Z,7.90
2023-04-18T17:37:31.754Z,7.40
2023-04-18T17:41:37.132Z,7.47
2023-04-18T17:45:39.976Z,7.32
2023-04-18T17:49:42.526Z,7.82
2023-04-18T17:53:46.502Z,7.47
2023-04-18T17:57:49.013Z,8.63
2023-04-18T18:01:51.715Z,8.17
2023-04-18T18:05:55.053Z,8.23
2023-04-18T18:14:01.424Z,8.02
2023-04-18T18:18:04.062Z,7.43
2023-04-18T18:22:07.046Z,7.70
2023-04-18T18:26:11.071Z,8.02
2023-04-18T18:30:14.336Z,8.15
2023-04-18T18:34:16.881Z,7.97
2023-04-18T18:38:19.627Z,7.53
2023-04-18T18:42:23.699Z,8.40
2023-04-18T18:46:27.183Z,7.80
2023-04-18T18:50:29.732Z,7.55
2023-04-18T18:54:32.397Z,7.97
2023-04-18T18:58:36.693Z,7.67
2023-04-18T19:02:39.589Z,8.07
2023-04-18T19:06:42.333Z,8.40
2023-04-18T19:10:44.942Z,8.37
2023-04-18T19:14:50.131Z,8.67
2023-04-18T19:18:53.118Z,8.20
2023-04-18T19:22:56.653Z,8.27
2023-04-18T19:26:59.696Z,8.35
2023-04-18T19:31:03.569Z,8.38
2023-04-18T19:35:07.083Z,8.50
2023-04-18T19:43:12.836Z,8.57
2023-04-18T19:47:16.731Z,8.10
2023-04-18T19:51:19.251Z,8.90
2023-04-18T19:55:22.097Z,8.70
2023-04-18T19:59:24.646Z,9.05
2023-04-18T20:03:29.022Z,9.27
2023-04-18T20:07:32.159Z,8.50
2023-04-18T20:11:34.695Z,8.48
2023-04-18T20:15:37.239Z,8.43
2023-04-18T20:19:41.337Z,8.07
2023-04-18T20:23:45.180Z,7.90
2023-04-18T20:27:48.134Z,7.90
2023-04-18T20:31:50.638Z,7.50
2023-04-18T20:35:54.657Z,6.77
2023-04-18T20:39:58.675Z,6.80
2023-04-18T20:44:05.039Z,5.90
2023-04-18T20:48:08.235Z,6.03
2023-04-18T20:52:14.234Z,5.72
2023-04-18T20:56:16.824Z,5.75
